sensor_id;sensor_type;location;lat;lon;timestamp;temperature;humidity
8994;DHT22;4532;50.886;4.700;2023-05-31T00:01:42;17.20;94.20
8994;DHT22;4532;50.886;4.700;2023-05-31T00:04:09;17.20;94.20
8994;DHT22;4532;50.886;4.700;2023-05-31T00:06:39;17.20;94.30
8994;DHT22;4532;50.886;4.700;2023-05-31T00:09:14;17.20;94.30
8994;DHT22;4532;50.886;4.700;2023-05-31T00:11:41;17.20;94.40
8994;DHT22;4532;50.886;4.700;2023-05-31T00:14:11;17.10;94.60
8994;DHT22;4532;50.886;4.700;2023-05-31T00:16:40;17.10;94.60
8994;DHT22;4532;50.886;4.700;2023-05-31T00:19:32;17.10;94.70
8994;DHT22;4532;50.886;4.700;2023-05-31T00:22:02;17.10;94.50
8994;DHT22;4532;50.886;4.700;2023-05-31T00:24:31;17.10;94.40
8994;DHT22;4532;50.886;4.700;2023-05-31T00:27:01;17.00;94.30
8994;DHT22;4532;50.886;4.700;2023-05-31T00:29:31;17.00;94.30
8994;DHT22;4532;50.886;4.700;2023-05-31T00:32:00;17.00;94.40
8994;DHT22;4532;50.886;4.700;2023-05-31T00:34:30;17.00;94.60
8994;DHT22;4532;50.886;4.700;2023-05-31T00:36:59;16.90;94.60
8994;DHT22;4532;50.886;4.700;2023-05-31T00:39:26;16.90;94.50
8994;DHT22;4532;50.886;4.700;2023-05-31T00:41:54;17.00;94.50
8994;DHT22;4532;50.886;4.700;2023-05-31T00:44:22;16.90;94.40
8994;DHT22;4532;50.886;4.700;2023-05-31T00:46:51;16.90;94.70
8994;DHT22;4532;50.886;4.700;2023-05-31T00:49:23;16.90;94.60
8994;DHT22;4532;50.886;4.700;2023-05-31T00:51:53;16.90;94.50
8994;DHT22;4532;50.886;4.700;2023-05-31T00:54:23;16.80;94.50
8994;DHT22;4532;50.886;4.700;2023-05-31T00:56:52;16.80;94.50
8994;DHT22;4532;50.886;4.700;2023-05-31T00:59:21;16.80;94.70
8994;DHT22;4532;50.886;4.700;2023-05-31T01:01:49;16.80;94.50
8994;DHT22;4532;50.886;4.700;2023-05-31T01:04:22;16.80;94.60
8994;DHT22;4532;50.886;4.700;2023-05-31T01:06:50;16.80;94.60
8994;DHT22;4532;50.886;4.700;2023-05-31T01:09:23;16.80;94.60
8994;DHT22;4532;50.886;4.700;2023-05-31T01:11:58;16.80;94.70
8994;DHT22;4532;50.886;4.700;2023-05-31T01:14:46;16.70;94.60
8994;DHT22;4532;50.886;4.700;2023-05-31T01:17:40;16.70;94.60
8994;DHT22;4532;50.886;4.700;2023-05-31T01:20:14;16.70;94.80
8994;DHT22;4532;50.886;4.700;2023-05-31T01:28:35;16.60;94.90
8994;DHT22;4532;50.886;4.700;2023-05-31T01:31:07;16.60;94.70
8994;DHT22;4532;50.886;4.700;2023-05-31T01:33:36;16.50;94.90
8994;DHT22;4532;50.886;4.700;2023-05-31T01:36:08;16.50;94.50
8994;DHT22;4532;50.886;4.700;2023-05-31T01:38:35;16.50;94.60
8994;DHT22;4532;50.886;4.700;2023-05-31T01:41:04;16.50;94.60
8994;DHT22;4532;50.886;4.700;2023-05-31T01:43:36;16.50;94.60
8994;DHT22;4532;50.886;4.700;2023-05-31T01:46:07;16.40;94.60
8994;DHT22;4532;50.886;4.700;2023-05-31T01:48:35;16.40;94.70
8994;DHT22;4532;50.886;4.700;2023-05-31T01:51:05;16.40;94.70
8994;DHT22;4532;50.886;4.700;2023-05-31T01:53:35;16.30;94.70
8994;DHT22;4532;50.886;4.700;2023-05-31T01:56:03;16.30;94.60
8994;DHT22;4532;50.886;4.700;2023-05-31T01:58:36;16.30;94.70
8994;DHT22;4532;50.886;4.700;2023-05-31T02:01:11;16.30;94.70
8994;DHT22;4532;50.886;4.700;2023-05-31T02:03:41;16.20;94.70
8994;DHT22;4532;50.886;4.700;2023-05-31T02:06:11;16.20;94.70
8994;DHT22;4532;50.886;4.700;2023-05-31T02:08:41;16.20;94.70
8994;DHT22;4532;50.886;4.700;2023-05-31T02:11:08;16.20;94.60
8994;DHT22;4532;50.886;4.700;2023-05-31T02:13:38;16.20;94.60
8994;DHT22;4532;50.886;4.700;2023-05-31T02:16:08;16.20;94.60
8994;DHT22;4532;50.886;4.700;2023-05-31T02:18:35;16.10;94.70
8994;DHT22;4532;50.886;4.700;2023-05-31T02:21:05;16.10;94.80
8994;DHT22;4532;50.886;4.700;2023-05-31T02:23:33;16.00;94.80
8994;DHT22;4532;50.886;4.700;2023-05-31T02:26:03;16.00;94.90
8994;DHT22;4532;50.886;4.700;2023-05-31T02:28:31;16.00;94.90
8994;DHT22;4532;50.886;4.700;2023-05-31T02:30:59;16.00;95.00
8994;DHT22;4532;50.886;4.700;2023-05-31T02:33:28;15.90;94.80
8994;DHT22;4532;50.886;4.700;2023-05-31T02:35:59;16.00;94.90
8994;DHT22;4532;50.886;4.700;2023-05-31T02:38:31;16.00;94.90
8994;DHT22;4532;50.886;4.700;2023-05-31T02:40:59;15.90;95.00
8994;DHT22;4532;50.886;4.700;2023-05-31T02:43:28;15.90;94.90
8994;DHT22;4532;50.886;4.700;2023-05-31T02:45:57;15.90;94.90
8994;DHT22;4532;50.886;4.700;2023-05-31T02:48:28;15.90;95.00
8994;DHT22;4532;50.886;4.700;2023-05-31T02:50:56;15.90;94.90
8994;DHT22;4532;50.886;4.700;2023-05-31T02:53:28;15.90;95.00
8994;DHT22;4532;50.886;4.700;2023-05-31T02:55:59;15.80;95.00
8994;DHT22;4532;50.886;4.700;2023-05-31T02:58:26;15.80;95.00
8994;DHT22;4532;50.886;4.700;2023-05-31T03:00:56;15.80;94.90
8994;DHT22;4532;50.886;4.700;2023-05-31T03:03:23;15.70;95.00
8994;DHT22;4532;50.886;4.700;2023-05-31T03:05:51;15.70;94.90
8994;DHT22;4532;50.886;4.700;2023-05-31T03:08:18;15.70;95.00
8994;DHT22;4532;50.886;4.700;2023-05-31T03:10:46;15.70;95.30
8994;DHT22;4532;50.886;4.700;2023-05-31T03:13:13;15.70;95.00
8994;DHT22;4532;50.886;4.700;2023-05-31T03:15:40;15.60;95.10
8994;DHT22;4532;50.886;4.700;2023-05-31T03:18:11;15.60;95.10
8994;DHT22;4532;50.886;4.700;2023-05-31T03:20:41;15.60;95.10
8994;DHT22;4532;50.886;4.700;2023-05-31T03:23:11;15.60;95.10
8994;DHT22;4532;50.886;4.700;2023-05-31T03:25:43;15.50;95.00
8994;DHT22;4532;50.886;4.700;2023-05-31T03:28:12;15.50;95.00
8994;DHT22;4532;50.886;4.700;2023-05-31T03:30:40;15.50;95.20
8994;DHT22;4532;50.886;4.700;2023-05-31T03:33:09;15.50;95.20
8994;DHT22;4532;50.886;4.700;2023-05-31T03:35:37;15.50;95.00
8994;DHT22;4532;50.886;4.700;2023-05-31T03:38:04;15.50;95.10
8994;DHT22;4532;50.886;4.700;2023-05-31T03:40:36;15.50;95.10
8994;DHT22;4532;50.886;4.700;2023-05-31T03:43:03;15.50;95.10
8994;DHT22;4532;50.886;4.700;2023-05-31T03:45:31;15.40;95.20
8994;DHT22;4532;50.886;4.700;2023-05-31T03:47:59;15.40;95.30
8994;DHT22;4532;50.886;4.700;2023-05-31T03:50:31;15.40;95.20
8994;DHT22;4532;50.886;4.700;2023-05-31T03:52:58;15.40;95.30
8994;DHT22;4532;50.886;4.700;2023-05-31T03:55:28;15.40;95.20
8994;DHT22;4532;50.886;4.700;2023-05-31T03:57:58;15.40;95.20
8994;DHT22;4532;50.886;4.700;2023-05-31T04:00:25;15.40;95.10
8994;DHT22;4532;50.886;4.700;2023-05-31T04:02:53;15.30;95.00
8994;DHT22;4532;50.886;4.700;2023-05-31T04:05:33;15.40;95.20
8994;DHT22;4532;50.886;4.700;2023-05-31T04:08:03;15.30;95.10
8994;DHT22;4532;50.886;4.700;2023-05-31T04:10:33;15.30;95.30
8994;DHT22;4532;50.886;4.700;2023-05-31T04:13:00;15.30;95.30
8994;DHT22;4532;50.886;4.700;2023-05-31T04:15:28;15.30;95.20
8994;DHT22;4532;50.886;4.700;2023-05-31T04:17:55;15.30;95.50
8994;DHT22;4532;50.886;4.700;2023-05-31T04:20:25;15.30;95.40
8994;DHT22;4532;50.886;4.700;2023-05-31T04:22:53;15.30;95.80
8994;DHT22;4532;50.886;4.700;2023-05-31T04:25:25;15.20;95.50
8994;DHT22;4532;50.886;4.700;2023-05-31T04:27:57;15.20;95.60
8994;DHT22;4532;50.886;4.700;2023-05-31T04:30:24;15.20;95.60
8994;DHT22;4532;50.886;4.700;2023-05-31T04:32:51;15.20;95.80
8994;DHT22;4532;50.886;4.700;2023-05-31T04:35:24;15.20;95.70
8994;DHT22;4532;50.886;4.700;2023-05-31T04:37:58;15.20;95.60
8994;DHT22;4532;50.886;4.700;2023-05-31T04:40:29;15.30;95.70
8994;DHT22;4532;50.886;4.700;2023-05-31T04:43:00;15.30;95.60
8994;DHT22;4532;50.886;4.700;2023-05-31T04:45:30;15.30;96.00
8994;DHT22;4532;50.886;4.700;2023-05-31T04:48:04;15.30;95.80
8994;DHT22;4532;50.886;4.700;2023-05-31T04:50:31;15.30;95.90
8994;DHT22;4532;50.886;4.700;2023-05-31T04:53:01;15.30;95.90
8994;DHT22;4532;50.886;4.700;2023-05-31T04:55:31;15.30;96.00
8994;DHT22;4532;50.886;4.700;2023-05-31T04:57:58;15.30;95.90
8994;DHT22;4532;50.886;4.700;2023-05-31T05:00:28;15.30;95.90
8994;DHT22;4532;50.886;4.700;2023-05-31T05:02:59;15.40;96.10
8994;DHT22;4532;50.886;4.700;2023-05-31T05:05:31;15.40;96.20
8994;DHT22;4532;50.886;4.700;2023-05-31T05:07:58;15.40;96.10
8994;DHT22;4532;50.886;4.700;2023-05-31T05:10:25;15.40;96.20
8994;DHT22;4532;50.886;4.700;2023-05-31T05:12:55;15.40;96.50
8994;DHT22;4532;50.886;4.700;2023-05-31T05:15:25;15.40;96.60
8994;DHT22;4532;50.886;4.700;2023-05-31T05:17:52;15.40;96.60
8994;DHT22;4532;50.886;4.700;2023-05-31T05:20:20;15.40;96.60
8994;DHT22;4532;50.886;4.700;2023-05-31T05:22:51;15.40;97.10
8994;DHT22;4532;50.886;4.700;2023-05-31T05:25:21;15.40;96.90
8994;DHT22;4532;50.886;4.700;2023-05-31T05:27:49;15.40;97.10
8994;DHT22;4532;50.886;4.700;2023-05-31T05:30:17;15.40;97.20
8994;DHT22;4532;50.886;4.700;2023-05-31T05:32:44;15.40;96.70
8994;DHT22;4532;50.886;4.700;2023-05-31T05:35:11;15.40;97.40
8994;DHT22;4532;50.886;4.700;2023-05-31T05:37:39;15.50;97.00
8994;DHT22;4532;50.886;4.700;2023-05-31T05:40:06;15.50;97.10
8994;DHT22;4532;50.886;4.700;2023-05-31T05:42:36;15.50;97.10
8994;DHT22;4532;50.886;4.700;2023-05-31T05:45:05;15.60;97.00
8994;DHT22;4532;50.886;4.700;2023-05-31T05:47:34;15.60;97.10
8994;DHT22;4532;50.886;4.700;2023-05-31T05:50:05;15.70;97.00
8994;DHT22;4532;50.886;4.700;2023-05-31T05:52:37;15.70;97.00
8994;DHT22;4532;50.886;4.700;2023-05-31T05:55:07;15.80;97.00
8994;DHT22;4532;50.886;4.700;2023-05-31T05:57:37;15.80;97.70
8994;DHT22;4532;50.886;4.700;2023-05-31T06:00:05;15.80;98.10
8994;DHT22;4532;50.886;4.700;2023-05-31T06:02:42;15.90;97.40
8994;DHT22;4532;50.886;4.700;2023-05-31T06:05:10;15.90;97.30
8994;DHT22;4532;50.886;4.700;2023-05-31T06:07:37;16.00;97.50
8994;DHT22;4532;50.886;4.700;2023-05-31T06:10:04;16.00;97.50
8994;DHT22;4532;50.886;4.700;2023-05-31T06:12:33;16.10;97.50
8994;DHT22;4532;50.886;4.700;2023-05-31T06:15:00;16.20;97.30
8994;DHT22;4532;50.886;4.700;2023-05-31T06:17:30;16.20;97.80
8994;DHT22;4532;50.886;4.700;2023-05-31T06:20:00;16.20;98.10
8994;DHT22;4532;50.886;4.700;2023-05-31T06:22:27;16.30;97.60
8994;DHT22;4532;50.886;4.700;2023-05-31T06:24:58;16.30;97.80
8994;DHT22;4532;50.886;4.700;2023-05-31T06:27:25;16.40;97.60
8994;DHT22;4532;50.886;4.700;2023-05-31T06:29:55;16.40;97.50
8994;DHT22;4532;50.886;4.700;2023-05-31T06:32:25;16.50;97.70
8994;DHT22;4532;50.886;4.700;2023-05-31T06:34:57;16.50;97.90
8994;DHT22;4532;50.886;4.700;2023-05-31T06:37:27;16.50;97.60
8994;DHT22;4532;50.886;4.700;2023-05-31T06:39:54;16.60;97.90
8994;DHT22;4532;50.886;4.700;2023-05-31T06:42:22;16.60;97.80
8994;DHT22;4532;50.886;4.700;2023-05-31T06:44:49;16.70;98.10
8994;DHT22;4532;50.886;4.700;2023-05-31T06:47:23;16.70;97.90
8994;DHT22;4532;50.886;4.700;2023-05-31T06:49:53;16.70;97.80
8994;DHT22;4532;50.886;4.700;2023-05-31T06:52:22;16.80;97.80
8994;DHT22;4532;50.886;4.700;2023-05-31T06:54:52;16.90;97.80
8994;DHT22;4532;50.886;4.700;2023-05-31T06:57:22;16.90;97.80
8994;DHT22;4532;50.886;4.700;2023-05-31T06:59:51;17.00;97.80
8994;DHT22;4532;50.886;4.700;2023-05-31T07:02:19;17.00;97.90
8994;DHT22;4532;50.886;4.700;2023-05-31T07:04:48;17.10;98.00
8994;DHT22;4532;50.886;4.700;2023-05-31T07:07:15;17.20;98.20
8994;DHT22;4532;50.886;4.700;2023-05-31T07:09:45;17.20;98.10
8994;DHT22;4532;50.886;4.700;2023-05-31T07:12:14;17.20;98.00
8994;DHT22;4532;50.886;4.700;2023-05-31T07:14:44;17.20;98.30
8994;DHT22;4532;50.886;4.700;2023-05-31T07:17:11;17.20;98.50
8994;DHT22;4532;50.886;4.700;2023-05-31T07:19:46;17.30;98.20
8994;DHT22;4532;50.886;4.700;2023-05-31T07:22:16;17.40;98.60
8994;DHT22;4532;50.886;4.700;2023-05-31T07:24:46;17.40;98.60
8994;DHT22;4532;50.886;4.700;2023-05-31T07:27:14;17.50;98.40
8994;DHT22;4532;50.886;4.700;2023-05-31T07:29:41;17.60;98.60
8994;DHT22;4532;50.886;4.700;2023-05-31T07:32:08;17.60;98.60
8994;DHT22;4532;50.886;4.700;2023-05-31T07:34:36;17.70;98.90
8994;DHT22;4532;50.886;4.700;2023-05-31T07:37:06;17.70;98.70
8994;DHT22;4532;50.886;4.700;2023-05-31T07:39:33;17.80;98.60
8994;DHT22;4532;50.886;4.700;2023-05-31T07:42:00;17.90;98.60
8994;DHT22;4532;50.886;4.700;2023-05-31T07:44:33;17.90;98.70
8994;DHT22;4532;50.886;4.700;2023-05-31T07:47:00;18.00;99.00
8994;DHT22;4532;50.886;4.700;2023-05-31T07:49:30;18.10;98.70
8994;DHT22;4532;50.886;4.700;2023-05-31T07:52:02;18.10;98.60
8994;DHT22;4532;50.886;4.700;2023-05-31T07:54:31;18.20;98.70
8994;DHT22;4532;50.886;4.700;2023-05-31T07:57:03;18.30;98.80
8994;DHT22;4532;50.886;4.700;2023-05-31T07:59:30;18.30;98.90
8994;DHT22;4532;50.886;4.700;2023-05-31T08:01:58;18.40;98.80
8994;DHT22;4532;50.886;4.700;2023-05-31T08:04:28;18.50;98.90
8994;DHT22;4532;50.886;4.700;2023-05-31T08:06:55;18.50;98.90
8994;DHT22;4532;50.886;4.700;2023-05-31T08:09:24;18.50;99.00
8994;DHT22;4532;50.886;4.700;2023-05-31T08:11:57;18.60;99.00
8994;DHT22;4532;50.886;4.700;2023-05-31T08:14:27;18.70;99.00
8994;DHT22;4532;50.886;4.700;2023-05-31T08:16:56;18.80;99.10
8994;DHT22;4532;50.886;4.700;2023-05-31T08:19:29;18.80;98.90
8994;DHT22;4532;50.886;4.700;2023-05-31T08:21:58;18.90;99.10
8994;DHT22;4532;50.886;4.700;2023-05-31T08:24:28;18.90;99.40
8994;DHT22;4532;50.886;4.700;2023-05-31T08:26:57;19.00;99.10
8994;DHT22;4532;50.886;4.700;2023-05-31T08:29:25;19.00;99.00
8994;DHT22;4532;50.886;4.700;2023-05-31T08:31:55;19.10;99.10
8994;DHT22;4532;50.886;4.700;2023-05-31T08:34:22;19.20;99.10
8994;DHT22;4532;50.886;4.700;2023-05-31T08:36:49;19.20;99.00
8994;DHT22;4532;50.886;4.700;2023-05-31T08:39:16;19.30;99.10
8994;DHT22;4532;50.886;4.700;2023-05-31T08:44:23;19.30;99.20
8994;DHT22;4532;50.886;4.700;2023-05-31T08:46:56;19.40;99.10
8994;DHT22;4532;50.886;4.700;2023-05-31T08:49:24;19.50;99.20
8994;DHT22;4532;50.886;4.700;2023-05-31T08:51:52;19.60;99.20
8994;DHT22;4532;50.886;4.700;2023-05-31T08:54:20;19.60;99.00
8994;DHT22;4532;50.886;4.700;2023-05-31T08:56:53;19.70;99.00
8994;DHT22;4532;50.886;4.700;2023-05-31T08:59:23;19.70;99.00
8994;DHT22;4532;50.886;4.700;2023-05-31T09:01:52;19.80;99.10
8994;DHT22;4532;50.886;4.700;2023-05-31T09:04:22;19.80;99.10
8994;DHT22;4532;50.886;4.700;2023-05-31T09:06:56;19.90;98.90
8994;DHT22;4532;50.886;4.700;2023-05-31T09:09:24;19.90;98.80
8994;DHT22;4532;50.886;4.700;2023-05-31T09:11:54;20.00;99.00
8994;DHT22;4532;50.886;4.700;2023-05-31T09:14:23;20.00;99.00
8994;DHT22;4532;50.886;4.700;2023-05-31T09:16:53;20.10;99.10
8994;DHT22;4532;50.886;4.700;2023-05-31T09:19:20;20.10;99.10
8994;DHT22;4532;50.886;4.700;2023-05-31T09:21:48;20.20;99.20
8994;DHT22;4532;50.886;4.700;2023-05-31T09:24:15;20.30;99.20
8994;DHT22;4532;50.886;4.700;2023-05-31T09:26:50;20.30;99.10
8994;DHT22;4532;50.886;4.700;2023-05-31T09:29:18;20.50;99.30
8994;DHT22;4532;50.886;4.700;2023-05-31T09:32:07;20.50;99.10
8994;DHT22;4532;50.886;4.700;2023-05-31T09:34:37;20.60;99.20
8994;DHT22;4532;50.886;4.700;2023-05-31T09:37:04;20.70;99.30
8994;DHT22;4532;50.886;4.700;2023-05-31T09:39:36;20.70;99.40
8994;DHT22;4532;50.886;4.700;2023-05-31T09:42:11;20.80;99.20
8994;DHT22;4532;50.886;4.700;2023-05-31T09:44:47;20.90;99.30
8994;DHT22;4532;50.886;4.700;2023-05-31T09:47:15;20.90;99.20
8994;DHT22;4532;50.886;4.700;2023-05-31T09:49:43;21.00;99.00
8994;DHT22;4532;50.886;4.700;2023-05-31T09:52:13;21.10;99.20
8994;DHT22;4532;50.886;4.700;2023-05-31T09:54:43;21.10;98.60
8994;DHT22;4532;50.886;4.700;2023-05-31T09:57:32;21.10;99.10
8994;DHT22;4532;50.886;4.700;2023-05-31T10:00:03;21.20;99.00
8994;DHT22;4532;50.886;4.700;2023-05-31T10:02:39;21.20;98.70
8994;DHT22;4532;50.886;4.700;2023-05-31T10:05:14;21.20;98.80
8994;DHT22;4532;50.886;4.700;2023-05-31T10:07:47;21.30;98.70
8994;DHT22;4532;50.886;4.700;2023-05-31T10:10:18;21.40;98.70
8994;DHT22;4532;50.886;4.700;2023-05-31T10:15:22;21.40;98.00
8994;DHT22;4532;50.886;4.700;2023-05-31T10:18:10;21.40;98.30
8994;DHT22;4532;50.886;4.700;2023-05-31T10:20:52;21.50;98.10
8994;DHT22;4532;50.886;4.700;2023-05-31T10:23:24;21.60;98.60
8994;DHT22;4532;50.886;4.700;2023-05-31T10:28:27;21.70;98.70
8994;DHT22;4532;50.886;4.700;2023-05-31T10:30:55;21.80;98.90
8994;DHT22;4532;50.886;4.700;2023-05-31T10:33:26;21.90;98.40
8994;DHT22;4532;50.886;4.700;2023-05-31T10:35:59;22.00;98.80
8994;DHT22;4532;50.886;4.700;2023-05-31T10:38:39;22.00;98.10
8994;DHT22;4532;50.886;4.700;2023-05-31T10:41:14;22.00;98.20
8994;DHT22;4532;50.886;4.700;2023-05-31T10:44:07;22.00;96.90
8994;DHT22;4532;50.886;4.700;2023-05-31T10:46:38;22.10;97.00
8994;DHT22;4532;50.886;4.700;2023-05-31T10:49:09;22.20;97.70
8994;DHT22;4532;50.886;4.700;2023-05-31T10:54:20;22.30;98.20
8994;DHT22;4532;50.886;4.700;2023-05-31T10:56:57;22.40;97.80
8994;DHT22;4532;50.886;4.700;2023-05-31T10:59:26;22.40;96.60
8994;DHT22;4532;50.886;4.700;2023-05-31T11:01:57;22.40;96.90
8994;DHT22;4532;50.886;4.700;2023-05-31T11:04:30;22.50;97.40
8994;DHT22;4532;50.886;4.700;2023-05-31T11:07:18;22.60;97.70
8994;DHT22;4532;50.886;4.700;2023-05-31T11:09:55;22.70;97.80
8994;DHT22;4532;50.886;4.700;2023-05-31T11:12:34;22.70;96.60
8994;DHT22;4532;50.886;4.700;2023-05-31T11:15:03;22.70;97.20
8994;DHT22;4532;50.886;4.700;2023-05-31T11:17:55;22.70;96.50
8994;DHT22;4532;50.886;4.700;2023-05-31T11:20:26;22.80;97.20
8994;DHT22;4532;50.886;4.700;2023-05-31T11:26:25;23.00;97.60
8994;DHT22;4532;50.886;4.700;2023-05-31T11:29:01;23.00;95.00
8994;DHT22;4532;50.886;4.700;2023-05-31T11:34:23;23.10;96.20
8994;DHT22;4532;50.886;4.700;2023-05-31T11:37:00;23.10;95.40
8994;DHT22;4532;50.886;4.700;2023-05-31T11:39:27;23.10;94.80
8994;DHT22;4532;50.886;4.700;2023-05-31T11:41:57;23.10;95.40
8994;DHT22;4532;50.886;4.700;2023-05-31T11:44:29;23.10;94.30
8994;DHT22;4532;50.886;4.700;2023-05-31T11:47:06;23.10;94.60
8994;DHT22;4532;50.886;4.700;2023-05-31T11:49:41;23.20;93.80
8994;DHT22;4532;50.886;4.700;2023-05-31T11:52:16;23.30;95.00
8994;DHT22;4532;50.886;4.700;2023-05-31T11:54:47;23.40;95.20
8994;DHT22;4532;50.886;4.700;2023-05-31T11:57:17;23.40;95.20
8994;DHT22;4532;50.886;4.700;2023-05-31T11:59:46;23.50;95.60
8994;DHT22;4532;50.886;4.700;2023-05-31T12:02:14;23.60;95.50
8994;DHT22;4532;50.886;4.700;2023-05-31T12:04:48;23.70;95.50
8994;DHT22;4532;50.886;4.700;2023-05-31T12:07:18;23.80;96.20
8994;DHT22;4532;50.886;4.700;2023-05-31T12:09:49;23.80;95.90
8994;DHT22;4532;50.886;4.700;2023-05-31T12:12:21;23.90;95.80
8994;DHT22;4532;50.886;4.700;2023-05-31T12:14:52;24.00;95.10
8994;DHT22;4532;50.886;4.700;2023-05-31T12:17:23;24.00;95.00
8994;DHT22;4532;50.886;4.700;2023-05-31T12:19:52;24.00;95.80
8994;DHT22;4532;50.886;4.700;2023-05-31T12:22:24;24.00;95.20
8994;DHT22;4532;50.886;4.700;2023-05-31T12:24:54;24.00;94.60
8994;DHT22;4532;50.886;4.700;2023-05-31T12:27:26;24.10;95.50
8994;DHT22;4532;50.886;4.700;2023-05-31T12:30:16;24.20;94.80
8994;DHT22;4532;50.886;4.700;2023-05-31T12:32:49;24.10;94.60
8994;DHT22;4532;50.886;4.700;2023-05-31T12:35:16;24.20;95.70
8994;DHT22;4532;50.886;4.700;2023-05-31T12:37:53;24.30;95.70
8994;DHT22;4532;50.886;4.700;2023-05-31T12:40:21;24.30;95.50
8994;DHT22;4532;50.886;4.700;2023-05-31T12:42:59;24.30;94.30
8994;DHT22;4532;50.886;4.700;2023-05-31T12:45:29;24.40;94.70
8994;DHT22;4532;50.886;4.700;2023-05-31T12:47:59;24.50;95.00
8994;DHT22;4532;50.886;4.700;2023-05-31T12:50:32;24.50;95.50
8994;DHT22;4532;50.886;4.700;2023-05-31T12:53:01;24.50;94.40
8994;DHT22;4532;50.886;4.700;2023-05-31T12:55:34;24.60;95.30
8994;DHT22;4532;50.886;4.700;2023-05-31T12:58:04;24.60;95.50
8994;DHT22;4532;50.886;4.700;2023-05-31T13:00:34;24.70;94.40
8994;DHT22;4532;50.886;4.700;2023-05-31T13:03:03;24.80;94.90
8994;DHT22;4532;50.886;4.700;2023-05-31T13:05:40;24.80;94.50
8994;DHT22;4532;50.886;4.700;2023-05-31T13:08:12;24.80;94.20
8994;DHT22;4532;50.886;4.700;2023-05-31T13:10:39;24.90;94.00
8994;DHT22;4532;50.886;4.700;2023-05-31T13:13:06;24.90;95.30
8994;DHT22;4532;50.886;4.700;2023-05-31T13:15:36;25.00;94.40
8994;DHT22;4532;50.886;4.700;2023-05-31T13:18:04;25.10;95.20
8994;DHT22;4532;50.886;4.700;2023-05-31T13:20:34;25.20;95.60
8994;DHT22;4532;50.886;4.700;2023-05-31T13:23:04;25.20;95.30
8994;DHT22;4532;50.886;4.700;2023-05-31T13:25:34;25.30;95.30
8994;DHT22;4532;50.886;4.700;2023-05-31T13:28:02;25.40;95.40
8994;DHT22;4532;50.886;4.700;2023-05-31T13:30:29;25.40;95.80
8994;DHT22;4532;50.886;4.700;2023-05-31T13:33:01;25.50;95.60
8994;DHT22;4532;50.886;4.700;2023-05-31T13:35:28;25.60;94.90
8994;DHT22;4532;50.886;4.700;2023-05-31T13:37:55;25.60;95.30
8994;DHT22;4532;50.886;4.700;2023-05-31T13:40:23;25.60;93.70
8994;DHT22;4532;50.886;4.700;2023-05-31T13:42:53;25.70;95.10
8994;DHT22;4532;50.886;4.700;2023-05-31T13:45:23;25.70;94.30
8994;DHT22;4532;50.886;4.700;2023-05-31T13:47:52;25.80;94.80
8994;DHT22;4532;50.886;4.700;2023-05-31T13:50:20;25.90;95.20
8994;DHT22;4532;50.886;4.700;2023-05-31T13:52:47;26.00;95.00
8994;DHT22;4532;50.886;4.700;2023-05-31T13:55:15;26.10;95.30
8994;DHT22;4532;50.886;4.700;2023-05-31T13:57:43;26.10;94.80
8994;DHT22;4532;50.886;4.700;2023-05-31T14:00:10;26.20;94.10
8994;DHT22;4532;50.886;4.700;2023-05-31T14:02:38;26.20;95.20
8994;DHT22;4532;50.886;4.700;2023-05-31T14:05:08;26.20;94.10
8994;DHT22;4532;50.886;4.700;2023-05-31T14:07:38;26.30;94.80
8994;DHT22;4532;50.886;4.700;2023-05-31T14:10:10;26.40;95.20
8994;DHT22;4532;50.886;4.700;2023-05-31T14:12:40;26.40;95.20
8994;DHT22;4532;50.886;4.700;2023-05-31T14:15:12;26.50;93.70
8994;DHT22;4532;50.886;4.700;2023-05-31T14:17:39;26.60;94.50
8994;DHT22;4532;50.886;4.700;2023-05-31T14:20:07;26.60;94.10
8994;DHT22;4532;50.886;4.700;2023-05-31T14:22:37;26.70;94.10
8994;DHT22;4532;50.886;4.700;2023-05-31T14:25:08;26.70;94.70
8994;DHT22;4532;50.886;4.700;2023-05-31T14:27:35;26.80;94.50
8994;DHT22;4532;50.886;4.700;2023-05-31T14:30:03;26.90;95.20
8994;DHT22;4532;50.886;4.700;2023-05-31T14:32:35;26.90;94.90
8994;DHT22;4532;50.886;4.700;2023-05-31T14:35:05;27.00;95.20
8994;DHT22;4532;50.886;4.700;2023-05-31T14:37:33;27.00;95.20
8994;DHT22;4532;50.886;4.700;2023-05-31T14:40:12;27.10;95.60
8994;DHT22;4532;50.886;4.700;2023-05-31T14:42:41;27.20;95.50
8994;DHT22;4532;50.886;4.700;2023-05-31T14:45:09;27.30;94.90
8994;DHT22;4532;50.886;4.700;2023-05-31T14:47:36;27.30;95.40
8994;DHT22;4532;50.886;4.700;2023-05-31T14:50:07;27.40;95.30
8994;DHT22;4532;50.886;4.700;2023-05-31T14:52:34;27.40;94.50
8994;DHT22;4532;50.886;4.700;2023-05-31T14:55:04;27.50;94.70
8994;DHT22;4532;50.886;4.700;2023-05-31T14:57:34;27.50;95.20
8994;DHT22;4532;50.886;4.700;2023-05-31T15:00:05;27.60;95.00
8994;DHT22;4532;50.886;4.700;2023-05-31T15:02:35;27.60;94.80
8994;DHT22;4532;50.886;4.700;2023-05-31T15:05:05;27.70;94.80
8994;DHT22;4532;50.886;4.700;2023-05-31T15:07:32;27.70;94.50
8994;DHT22;4532;50.886;4.700;2023-05-31T15:10:07;27.80;95.10
8994;DHT22;4532;50.886;4.700;2023-05-31T15:12:34;27.80;94.50
8994;DHT22;4532;50.886;4.700;2023-05-31T15:15:07;27.80;94.00
8994;DHT22;4532;50.886;4.700;2023-05-31T15:17:39;27.90;94.80
8994;DHT22;4532;50.886;4.700;2023-05-31T15:20:07;27.90;94.50
8994;DHT22;4532;50.886;4.700;2023-05-31T15:22:34;28.00;94.80
8994;DHT22;4532;50.886;4.700;2023-05-31T15:25:03;28.10;95.00
8994;DHT22;4532;50.886;4.700;2023-05-31T15:27:32;28.10;94.90
8994;DHT22;4532;50.886;4.700;2023-05-31T15:30:02;28.20;95.00
8994;DHT22;4532;50.886;4.700;2023-05-31T15:32:33;28.30;95.20
8994;DHT22;4532;50.886;4.700;2023-05-31T15:35:03;28.30;95.30
8994;DHT22;4532;50.886;4.700;2023-05-31T15:37:30;28.40;95.00
8994;DHT22;4532;50.886;4.700;2023-05-31T15:39:57;28.40;93.80
8994;DHT22;4532;50.886;4.700;2023-05-31T15:42:27;28.50;93.70
8994;DHT22;4532;50.886;4.700;2023-05-31T15:44:57;28.50;93.90
8994;DHT22;4532;50.886;4.700;2023-05-31T15:47:29;28.40;93.00
8994;DHT22;4532;50.886;4.700;2023-05-31T15:49:59;28.40;93.50
8994;DHT22;4532;50.886;4.700;2023-05-31T15:52:34;28.40;93.60
8994;DHT22;4532;50.886;4.700;2023-05-31T15:55:04;28.40;93.50
8994;DHT22;4532;50.886;4.700;2023-05-31T15:57:35;28.40;94.30
8994;DHT22;4532;50.886;4.700;2023-05-31T16:00:04;28.50;94.00
8994;DHT22;4532;50.886;4.700;2023-05-31T16:02:32;28.50;93.70
8994;DHT22;4532;50.886;4.700;2023-05-31T16:04:59;28.60;93.60
8994;DHT22;4532;50.886;4.700;2023-05-31T16:07:29;28.50;93.30
8994;DHT22;4532;50.886;4.700;2023-05-31T16:09:58;28.60;93.60
8994;DHT22;4532;50.886;4.700;2023-05-31T16:12:30;28.60;93.50
8994;DHT22;4532;50.886;4.700;2023-05-31T16:15:03;28.60;93.60
8994;DHT22;4532;50.886;4.700;2023-05-31T16:17:31;28.60;93.80
8994;DHT22;4532;50.886;4.700;2023-05-31T16:20:00;28.70;93.30
8994;DHT22;4532;50.886;4.700;2023-05-31T16:22:30;28.50;92.50
8994;DHT22;4532;50.886;4.700;2023-05-31T16:25:02;28.60;93.30
8994;DHT22;4532;50.886;4.700;2023-05-31T16:27:32;28.60;93.50
8994;DHT22;4532;50.886;4.700;2023-05-31T16:30:02;28.60;93.60
8994;DHT22;4532;50.886;4.700;2023-05-31T16:32:30;28.60;92.80
8994;DHT22;4532;50.886;4.700;2023-05-31T16:34:57;28.70;93.60
8994;DHT22;4532;50.886;4.700;2023-05-31T16:37:24;28.70;93.60
8994;DHT22;4532;50.886;4.700;2023-05-31T16:39:57;28.70;92.60
8994;DHT22;4532;50.886;4.700;2023-05-31T16:42:26;28.70;93.10
8994;DHT22;4532;50.886;4.700;2023-05-31T16:44:56;28.70;93.00